CSN620 FQPO-FADK
Flight info
| Callsign | CSN620 |
|---|---|
| Flight time | 0h 46m |
| Altitude | 18000 |
| Route | ALENI |
| Aircraft | DHC6/L-SDFGR/C |
Departure
| Time | 2026-04-12 08:46 |
|---|---|
| Airport | Ponta do Ouro Airport (FQPO) |
Arrival
| Time | 2026-04-12 09:33 |
|---|---|
| Airport | Mubatuba Airport (FADK) |
| Time | Latitude | Longitude | Altitude | Speed | Heading |
|---|---|---|---|---|---|
| 2026-04-12 08:39 | -26.82569 | 32.84106 | 88 ft | 0 kts | 15° |
| 2026-04-12 08:44 | -26.82568 | 32.84106 | 88 ft | 1 kts | 9° |
| 2026-04-12 08:44 | -26.82560 | 32.84101 | 90 ft | 0 kts | 296° |
| 2026-04-12 08:44 | -26.82560 | 32.84100 | 90 ft | 0 kts | 266° |
| 2026-04-12 08:44 | -26.82564 | 32.84090 | 90 ft | 7 kts | 241° |
| 2026-04-12 08:45 | -26.82566 | 32.84011 | 94 ft | 10 kts | 291° |
| 2026-04-12 08:45 | -26.82545 | 32.83947 | 100 ft | 8 kts | 290° |
| 2026-04-12 08:45 | -26.82565 | 32.83895 | 102 ft | 8 kts | 198° |
| 2026-04-12 08:45 | -26.82703 | 32.83839 | 103 ft | 48 kts | 200° |
| 2026-04-12 08:46 | -26.83209 | 32.83642 | 114 ft | 102 kts | 198° |
| 2026-04-12 08:46 | -26.83942 | 32.83399 | 420 ft | 116 kts | 193° |
| 2026-04-12 08:46 | -26.85434 | 32.82637 | 1158 ft | 123 kts | 238° |
| 2026-04-12 08:47 | -26.85543 | 32.81699 | 1522 ft | 125 kts | 282° |
| 2026-04-12 08:47 | -26.85592 | 32.80705 | 1900 ft | 134 kts | 258° |
| 2026-04-12 08:47 | -26.85777 | 32.79655 | 2263 ft | 140 kts | 262° |
| 2026-04-12 08:47 | -26.85958 | 32.78590 | 2623 ft | 137 kts | 258° |
| 2026-04-12 08:48 | -26.86159 | 32.77554 | 2994 ft | 137 kts | 260° |
| 2026-04-12 08:48 | -26.86355 | 32.76506 | 3353 ft | 136 kts | 260° |
| 2026-04-12 08:48 | -26.86550 | 32.75478 | 3716 ft | 134 kts | 259° |
| 2026-04-12 08:48 | -26.86738 | 32.74474 | 4066 ft | 133 kts | 259° |
| 2026-04-12 08:49 | -26.86928 | 32.73466 | 4431 ft | 132 kts | 258° |
| 2026-04-12 08:49 | -26.87117 | 32.72468 | 4795 ft | 131 kts | 258° |
| 2026-04-12 08:49 | -26.87305 | 32.71473 | 5150 ft | 130 kts | 258° |
| 2026-04-12 08:49 | -26.87491 | 32.70490 | 5501 ft | 128 kts | 258° |
| 2026-04-12 08:50 | -26.87674 | 32.69520 | 5856 ft | 127 kts | 257° |
| 2026-04-12 08:50 | -26.87856 | 32.68557 | 6216 ft | 125 kts | 257° |
| 2026-04-12 08:50 | -26.88035 | 32.67603 | 6548 ft | 126 kts | 257° |
| 2026-04-12 08:50 | -26.88219 | 32.66626 | 6825 ft | 130 kts | 256° |
| 2026-04-12 08:51 | -26.88407 | 32.65624 | 7109 ft | 133 kts | 256° |
| 2026-04-12 08:51 | -26.88600 | 32.64607 | 7394 ft | 134 kts | 256° |
| 2026-04-12 08:51 | -26.88793 | 32.63582 | 7680 ft | 136 kts | 256° |
| 2026-04-12 08:51 | -26.88988 | 32.62547 | 7970 ft | 136 kts | 255° |
| 2026-04-12 08:52 | -26.89183 | 32.61506 | 8257 ft | 137 kts | 256° |
| 2026-04-12 08:52 | -26.89381 | 32.60460 | 8565 ft | 138 kts | 256° |
| 2026-04-12 08:52 | -26.89579 | 32.59402 | 8865 ft | 139 kts | 255° |
| 2026-04-12 08:52 | -26.89777 | 32.58350 | 9161 ft | 136 kts | 255° |
| 2026-04-12 08:53 | -26.89971 | 32.57318 | 9463 ft | 135 kts | 255° |
| 2026-04-12 08:53 | -26.90161 | 32.56307 | 9761 ft | 135 kts | 255° |
| 2026-04-12 08:53 | -26.90351 | 32.55291 | 10055 ft | 132 kts | 255° |
| 2026-04-12 08:53 | -26.90539 | 32.54290 | 10326 ft | 130 kts | 255° |
| 2026-04-12 08:54 | -26.90725 | 32.53300 | 10599 ft | 129 kts | 255° |
| 2026-04-12 08:54 | -26.90909 | 32.52319 | 10880 ft | 128 kts | 255° |
| 2026-04-12 08:54 | -26.91091 | 32.51342 | 11159 ft | 128 kts | 255° |
| 2026-04-12 08:54 | -26.91273 | 32.50374 | 11439 ft | 127 kts | 255° |
| 2026-04-12 08:55 | -26.91455 | 32.49406 | 11722 ft | 127 kts | 255° |
| 2026-04-12 08:55 | -26.91634 | 32.48442 | 12007 ft | 126 kts | 255° |
| 2026-04-12 08:55 | -26.91815 | 32.47483 | 12300 ft | 126 kts | 255° |
| 2026-04-12 08:55 | -26.91993 | 32.46526 | 12591 ft | 126 kts | 255° |
| 2026-04-12 08:56 | -26.92172 | 32.45565 | 12885 ft | 126 kts | 255° |
| 2026-04-12 08:56 | -26.92351 | 32.44611 | 13184 ft | 124 kts | 255° |
| 2026-04-12 08:56 | -26.92528 | 32.43665 | 13485 ft | 123 kts | 255° |
| 2026-04-12 08:56 | -26.92702 | 32.42733 | 13780 ft | 121 kts | 255° |
| 2026-04-12 08:57 | -26.92873 | 32.41816 | 14058 ft | 120 kts | 255° |
| 2026-04-12 08:57 | -26.93042 | 32.40907 | 14327 ft | 118 kts | 255° |
| 2026-04-12 08:57 | -26.93209 | 32.40010 | 14591 ft | 117 kts | 256° |
| 2026-04-12 08:57 | -26.93375 | 32.39125 | 14868 ft | 115 kts | 256° |
| 2026-04-12 08:58 | -26.93538 | 32.38253 | 15131 ft | 113 kts | 256° |
| 2026-04-12 08:58 | -26.93696 | 32.37393 | 15402 ft | 112 kts | 257° |
| 2026-04-12 08:58 | -26.93856 | 32.36546 | 15677 ft | 110 kts | 258° |
| 2026-04-12 08:58 | -26.94010 | 32.35718 | 15949 ft | 107 kts | 258° |
| 2026-04-12 08:59 | -26.94159 | 32.34910 | 16223 ft | 104 kts | 258° |
| 2026-04-12 08:59 | -26.94307 | 32.34120 | 16505 ft | 103 kts | 259° |
| 2026-04-12 08:59 | -26.94453 | 32.33343 | 16779 ft | 100 kts | 259° |
| 2026-04-12 08:59 | -26.94592 | 32.32587 | 17060 ft | 98 kts | 259° |
| 2026-04-12 09:00 | -26.94729 | 32.31857 | 17337 ft | 94 kts | 261° |
| 2026-04-12 09:00 | -26.94865 | 32.31135 | 17550 ft | 96 kts | 262° |
| 2026-04-12 09:00 | -26.94998 | 32.30410 | 17810 ft | 93 kts | 261° |
| 2026-04-12 09:00 | -26.95126 | 32.29691 | 17996 ft | 97 kts | 262° |
| 2026-04-12 09:01 | -26.95273 | 32.28873 | 18032 ft | 115 kts | 262° |
| 2026-04-12 09:01 | -26.95442 | 32.27942 | 18035 ft | 131 kts | 261° |
| 2026-04-12 09:01 | -26.95639 | 32.26898 | 18037 ft | 142 kts | 261° |
| 2026-04-12 09:01 | -26.95850 | 32.25785 | 18058 ft | 148 kts | 261° |
| 2026-04-12 09:02 | -26.96065 | 32.24642 | 18092 ft | 152 kts | 261° |
| 2026-04-12 09:02 | -26.96283 | 32.23465 | 18090 ft | 156 kts | 261° |
| 2026-04-12 09:02 | -26.96507 | 32.22262 | 18086 ft | 159 kts | 261° |
| 2026-04-12 09:02 | -26.96733 | 32.21044 | 18084 ft | 160 kts | 261° |
| 2026-04-12 09:03 | -26.96960 | 32.19817 | 18086 ft | 161 kts | 261° |
| 2026-04-12 09:03 | -26.97188 | 32.18583 | 18083 ft | 162 kts | 261° |
| 2026-04-12 09:03 | -26.97440 | 32.17353 | 18081 ft | 163 kts | 254° |
| 2026-04-12 09:03 | -26.98144 | 32.16331 | 18081 ft | 174 kts | 220° |
| 2026-04-12 09:04 | -26.99318 | 32.15916 | 18081 ft | 185 kts | 188° |
| 2026-04-12 09:04 | -27.00612 | 32.16055 | 18080 ft | 187 kts | 178° |
| 2026-04-12 09:04 | -27.01904 | 32.16251 | 18079 ft | 187 kts | 179° |
| 2026-04-12 09:04 | -27.03199 | 32.16394 | 18076 ft | 186 kts | 182° |
| 2026-04-12 09:05 | -27.04496 | 32.16477 | 18071 ft | 187 kts | 183° |
| 2026-04-12 09:05 | -27.05791 | 32.16552 | 18078 ft | 187 kts | 183° |
| 2026-04-12 09:05 | -27.07090 | 32.16630 | 18077 ft | 187 kts | 183° |
| 2026-04-12 09:05 | -27.08389 | 32.16709 | 18074 ft | 187 kts | 183° |
| 2026-04-12 09:06 | -27.09687 | 32.16789 | 18074 ft | 187 kts | 183° |
| 2026-04-12 09:06 | -27.10969 | 32.16867 | 18076 ft | 187 kts | 183° |
| 2026-04-12 09:06 | -27.12268 | 32.16947 | 18074 ft | 187 kts | 183° |
| 2026-04-12 09:06 | -27.13566 | 32.17026 | 18073 ft | 187 kts | 183° |
| 2026-04-12 09:07 | -27.14865 | 32.17106 | 18075 ft | 187 kts | 183° |
| 2026-04-12 09:07 | -27.16165 | 32.17186 | 18071 ft | 187 kts | 183° |
| 2026-04-12 09:07 | -27.17469 | 32.17264 | 18075 ft | 187 kts | 183° |
| 2026-04-12 09:07 | -27.18770 | 32.17346 | 18076 ft | 187 kts | 183° |
| 2026-04-12 09:08 | -27.20070 | 32.17424 | 18073 ft | 187 kts | 183° |
| 2026-04-12 09:08 | -27.21370 | 32.17503 | 18075 ft | 187 kts | 183° |
| 2026-04-12 09:08 | -27.22668 | 32.17584 | 18069 ft | 187 kts | 183° |
| 2026-04-12 09:08 | -27.23968 | 32.17663 | 18074 ft | 187 kts | 183° |
| 2026-04-12 09:09 | -27.25265 | 32.17744 | 18074 ft | 186 kts | 183° |
| 2026-04-12 09:09 | -27.26561 | 32.17822 | 18072 ft | 187 kts | 183° |
| 2026-04-12 09:09 | -27.27857 | 32.17902 | 18073 ft | 186 kts | 183° |
| 2026-04-12 09:09 | -27.29153 | 32.17981 | 18069 ft | 186 kts | 183° |
| 2026-04-12 09:10 | -27.30447 | 32.18061 | 18073 ft | 186 kts | 183° |
| 2026-04-12 09:10 | -27.31739 | 32.18141 | 18071 ft | 186 kts | 183° |
| 2026-04-12 09:10 | -27.33032 | 32.18218 | 18073 ft | 186 kts | 183° |
| 2026-04-12 09:10 | -27.34324 | 32.18298 | 18069 ft | 186 kts | 183° |
| 2026-04-12 09:11 | -27.35617 | 32.18378 | 18069 ft | 186 kts | 183° |
| 2026-04-12 09:11 | -27.36909 | 32.18457 | 18069 ft | 186 kts | 183° |
| 2026-04-12 09:11 | -27.38202 | 32.18537 | 18068 ft | 186 kts | 183° |
| 2026-04-12 09:11 | -27.39495 | 32.18615 | 18068 ft | 186 kts | 183° |
| 2026-04-12 09:12 | -27.40792 | 32.18696 | 18067 ft | 186 kts | 183° |
| 2026-04-12 09:12 | -27.42085 | 32.18776 | 18069 ft | 186 kts | 183° |
| 2026-04-12 09:12 | -27.43375 | 32.18854 | 18067 ft | 186 kts | 183° |
| 2026-04-12 09:12 | -27.44666 | 32.18934 | 18063 ft | 186 kts | 183° |
| 2026-04-12 09:13 | -27.45962 | 32.19014 | 18069 ft | 186 kts | 183° |
| 2026-04-12 09:13 | -27.47253 | 32.19093 | 18065 ft | 186 kts | 183° |
| 2026-04-12 09:13 | -27.48548 | 32.19173 | 18064 ft | 186 kts | 183° |
| 2026-04-12 09:13 | -27.49841 | 32.19252 | 18066 ft | 186 kts | 183° |
| 2026-04-12 09:14 | -27.51134 | 32.19332 | 18069 ft | 186 kts | 183° |
| 2026-04-12 09:14 | -27.52409 | 32.19411 | 18062 ft | 186 kts | 183° |
| 2026-04-12 09:14 | -27.53699 | 32.19490 | 18067 ft | 186 kts | 183° |
| 2026-04-12 09:14 | -27.54990 | 32.19570 | 18065 ft | 185 kts | 183° |
| 2026-04-12 09:15 | -27.56278 | 32.19649 | 18068 ft | 186 kts | 183° |
| 2026-04-12 09:15 | -27.57570 | 32.19729 | 18064 ft | 186 kts | 183° |
| 2026-04-12 09:15 | -27.58859 | 32.19808 | 18061 ft | 185 kts | 183° |
| 2026-04-12 09:15 | -27.60147 | 32.19888 | 18060 ft | 185 kts | 182° |
| 2026-04-12 09:16 | -27.61437 | 32.19967 | 18064 ft | 186 kts | 182° |
| 2026-04-12 09:16 | -27.62728 | 32.20047 | 18060 ft | 186 kts | 182° |
| 2026-04-12 09:16 | -27.64020 | 32.20127 | 18065 ft | 186 kts | 182° |
| 2026-04-12 09:16 | -27.65312 | 32.20206 | 18062 ft | 186 kts | 182° |
| 2026-04-12 09:17 | -27.66602 | 32.20286 | 18063 ft | 185 kts | 182° |
| 2026-04-12 09:17 | -27.67891 | 32.20366 | 18063 ft | 185 kts | 182° |
| 2026-04-12 09:17 | -27.69181 | 32.20445 | 18063 ft | 185 kts | 182° |
| 2026-04-12 09:17 | -27.70470 | 32.20525 | 18057 ft | 186 kts | 182° |
| 2026-04-12 09:18 | -27.71762 | 32.20605 | 18058 ft | 186 kts | 182° |
| 2026-04-12 09:18 | -27.73052 | 32.20685 | 18059 ft | 186 kts | 182° |
| 2026-04-12 09:18 | -27.74344 | 32.20764 | 18059 ft | 186 kts | 182° |
| 2026-04-12 09:18 | -27.75632 | 32.20845 | 18058 ft | 186 kts | 182° |
| 2026-04-12 09:19 | -27.76919 | 32.20925 | 18058 ft | 185 kts | 182° |
| 2026-04-12 09:19 | -27.78205 | 32.21004 | 18054 ft | 185 kts | 182° |
| 2026-04-12 09:19 | -27.79492 | 32.21083 | 18052 ft | 184 kts | 182° |
| 2026-04-12 09:20 | -27.82036 | 32.21242 | 18058 ft | 183 kts | 182° |
| 2026-04-12 09:20 | -27.83295 | 32.21316 | 18051 ft | 184 kts | 182° |
| 2026-04-12 09:20 | -27.85926 | 32.21477 | 16914 ft | 197 kts | 181° |
| 2026-04-12 09:21 | -27.87299 | 32.21604 | 16309 ft | 200 kts | 174° |
| 2026-04-12 09:21 | -27.88647 | 32.22023 | 15731 ft | 201 kts | 165° |
| 2026-04-12 09:21 | -27.89950 | 32.22540 | 15299 ft | 195 kts | 164° |
| 2026-04-12 09:21 | -27.91203 | 32.23047 | 14904 ft | 189 kts | 164° |
| 2026-04-12 09:22 | -27.92423 | 32.23542 | 14512 ft | 185 kts | 164° |
| 2026-04-12 09:22 | -27.93624 | 32.24027 | 14123 ft | 182 kts | 164° |
| 2026-04-12 09:22 | -27.94807 | 32.24504 | 13723 ft | 180 kts | 164° |
| 2026-04-12 09:22 | -27.95982 | 32.24979 | 13294 ft | 179 kts | 164° |
| 2026-04-12 09:23 | -27.97149 | 32.25445 | 12865 ft | 178 kts | 164° |
| 2026-04-12 09:23 | -27.98317 | 32.25915 | 12447 ft | 178 kts | 164° |
| 2026-04-12 09:23 | -27.99488 | 32.26381 | 12037 ft | 177 kts | 164° |
| 2026-04-12 09:23 | -28.00622 | 32.26839 | 11745 ft | 170 kts | 164° |
| 2026-04-12 09:24 | -28.01727 | 32.27291 | 11455 ft | 168 kts | 164° |
| 2026-04-12 09:24 | -28.02828 | 32.27743 | 11166 ft | 168 kts | 164° |
| 2026-04-12 09:24 | -28.03923 | 32.28164 | 10878 ft | 165 kts | 166° |
| 2026-04-12 09:24 | -28.05013 | 32.28561 | 10594 ft | 164 kts | 166° |
| 2026-04-12 09:25 | -28.06102 | 32.28907 | 10312 ft | 162 kts | 169° |
| 2026-04-12 09:25 | -28.07191 | 32.29212 | 10034 ft | 161 kts | 170° |
| 2026-04-12 09:25 | -28.08279 | 32.29513 | 9733 ft | 161 kts | 170° |
| 2026-04-12 09:25 | -28.09365 | 32.29815 | 9426 ft | 161 kts | 169° |
| 2026-04-12 09:26 | -28.10102 | 32.30017 | 9221 ft | 160 kts | 170° |
| 2026-04-12 09:26 | -28.11182 | 32.30313 | 8915 ft | 159 kts | 170° |
| 2026-04-12 09:26 | -28.12605 | 32.30695 | 8524 ft | 159 kts | 169° |
| 2026-04-12 09:26 | -28.13327 | 32.30883 | 8335 ft | 161 kts | 170° |
| 2026-04-12 09:27 | -28.14812 | 32.31159 | 7936 ft | 161 kts | 173° |
| 2026-04-12 09:27 | -28.15559 | 32.31284 | 7669 ft | 166 kts | 173° |
| 2026-04-12 09:27 | -28.17059 | 32.31503 | 7072 ft | 162 kts | 174° |
| 2026-04-12 09:27 | -28.17802 | 32.31582 | 6761 ft | 162 kts | 175° |
| 2026-04-12 09:28 | -28.18929 | 32.31681 | 6301 ft | 163 kts | 175° |
| 2026-04-12 09:28 | -28.20055 | 32.31664 | 5798 ft | 162 kts | 192° |
| 2026-04-12 09:28 | -28.21126 | 32.31250 | 5320 ft | 164 kts | 201° |
| 2026-04-12 09:28 | -28.22197 | 32.30808 | 4849 ft | 162 kts | 199° |
| 2026-04-12 09:29 | -28.23263 | 32.30377 | 4387 ft | 163 kts | 200° |
| 2026-04-12 09:29 | -28.24336 | 32.29964 | 3898 ft | 163 kts | 199° |
| 2026-04-12 09:29 | -28.25410 | 32.29549 | 3443 ft | 162 kts | 200° |
| 2026-04-12 09:29 | -28.26472 | 32.29150 | 2970 ft | 160 kts | 199° |
| 2026-04-12 09:30 | -28.27525 | 32.28746 | 2490 ft | 159 kts | 200° |
| 2026-04-12 09:30 | -28.28579 | 32.28331 | 2016 ft | 161 kts | 198° |
| 2026-04-12 09:30 | -28.29627 | 32.27933 | 1538 ft | 159 kts | 200° |
| 2026-04-12 09:30 | -28.30669 | 32.27543 | 1061 ft | 157 kts | 200° |
| 2026-04-12 09:31 | -28.31620 | 32.27177 | 1006 ft | 129 kts | 200° |
| 2026-04-12 09:31 | -28.32341 | 32.26880 | 864 ft | 93 kts | 206° |
| 2026-04-12 09:31 | -28.32898 | 32.26570 | 721 ft | 93 kts | 205° |
| 2026-04-12 09:31 | -28.33500 | 32.26213 | 695 ft | 98 kts | 209° |
| 2026-04-12 09:32 | -28.34137 | 32.25882 | 738 ft | 105 kts | 205° |
| 2026-04-12 09:32 | -28.34788 | 32.25543 | 663 ft | 100 kts | 202° |
| 2026-04-12 09:32 | -28.35427 | 32.25244 | 573 ft | 102 kts | 200° |
| 2026-04-12 09:32 | -28.36084 | 32.24947 | 389 ft | 101 kts | 201° |
| 2026-04-12 09:33 | -28.36657 | 32.24693 | 249 ft | 76 kts | 200° |
| 2026-04-12 09:33 | -28.37051 | 32.24496 | 243 ft | 42 kts | 207° |
| 2026-04-12 09:33 | -28.37107 | 32.24498 | 242 ft | 5 kts | 359° |
| 2026-04-12 09:33 | -28.37078 | 32.24503 | 243 ft | 5 kts | 24° |
| 2026-04-12 09:34 | -28.37042 | 32.24519 | 244 ft | 7 kts | 16° |
| 2026-04-12 09:34 | -28.36987 | 32.24542 | 244 ft | 10 kts | 21° |
| 2026-04-12 09:34 | -28.36912 | 32.24574 | 244 ft | 12 kts | 20° |
| 2026-04-12 09:34 | -28.36831 | 32.24606 | 246 ft | 12 kts | 19° |
| 2026-04-12 09:35 | -28.36754 | 32.24650 | 248 ft | 13 kts | 41° |
| 2026-04-12 09:35 | -28.36712 | 32.24728 | 246 ft | 10 kts | 70° |
| 2026-04-12 09:35 | -28.36697 | 32.24770 | 245 ft | 3 kts | 45° |
| 2026-04-12 09:35 | -28.36689 | 32.24776 | 245 ft | 1 kts | 28° |
| 2026-04-12 09:36 | -28.36685 | 32.24778 | 245 ft | 0 kts | 27° |